メルボルン の空港の天気 - METARとTAF

メルボルン空港 ( YMML / MEL ) - オーストラリア ビクトリア州、Melbourne Airport
飛行場実況気象(Metar)
観測時間04/22 01:00 AEST (04/21 15:00 UTC)
風向・風速南西 4m/s
視程10km以上
天気現象弱い霧雨
全天の8割程度の雲 雲底高度 610m
全天の8割程度の雲 雲底高度 1040m
気温15℃
湿度67%
気圧1023hPa
METARYMML 211500Z 23007KT 9999 -DZ BKN020 BKN034 15/09 Q1023 FM1600 19010KT 9999 -SHRA SCT010 BKN015 INTER 1500/1700 5000 SHRA BKN014 TEMPO 1700/1800 5000 SHRA BKN010
過去の天気等 Google飛行場航空写真 Wunderground天気予報

過去48時間のMETAR

飛行場予報(TAF)
発表時間: 4/21 21:12 AEST (4/21 11:12 UTC)
予報対象時間: 21日22時 AEST ~ 23日4時 AEST
風向・風速西南西 7m/s
視程10km以上
天気現象弱いしゅう雨
全天の4割程度の雲 雲底高度 460m
全天の8割程度の雲 雲底高度 610m
22日2時 AEST から
風向・風速南 5m/s
視程10km以上
天気現象弱いしゅう雨
全天の4割程度の雲 雲底高度 300m
全天の8割程度の雲 雲底高度 460m
22日7時 AEST ~ 22日9時 AEST に徐々に
風向・風速西南西 5m/s
視程10km以上
天気現象弱いしゅう雨
全天の4割程度の雲 雲底高度 550m
全天の8割程度の雲 雲底高度 760m
22日12時 AEST から
風向・風速南 5m/s
視程10km以上
全天の8割程度の雲 雲底高度 910m
23日0時 AEST から
風向・風速南西 3m/s
視程10km以上
全天の4割程度の雲 雲底高度 760m
22日2時 AEST ~ 22日9時 AEST に一時的に
視程5000m
天気現象しゅう雨
全天の8割程度の雲 雲底高度 300m
TAF YMML 211112Z 2112/2218 24013KT 9999 -SHRA SCT015 BKN020
FM211600 19010KT 9999 -SHRA SCT010 BKN015
BECMG 2121/2123 24010KT 9999 -SHRA SCT018 BKN025
FM220200 17010KT 9999 BKN030
FM221400 22006KT 9999 SCT025 INTER 2112/2116 5000 SHRA BKN012
TEMPO 2116/2123 5000 SHRA BKN010